Terminal Aerodrome Forecast
Issued by NWS Twin Cities, MN

Home | Current Version | Previous Version | Graphics & Text | Print | Product List | Glossary On
Versions: 1 2 3 4 5 6 7 8 9 10 11 12 13 14 15 16 17 18 19
115
FTUS43 KMPX 180017 AAA
TAFSTC
TAF AMD
KSTC 180017Z 1800/1824 21007KT P6SM BKN004
     FM180130 21006KT 5SM BR SCT005
     FM180700 20005KT P6SM FEW250=

USA.gov is the U.S. government's official web portal to all federal, state and local government web resources and services.